sensor_id;sensor_type;location;lat;lon;timestamp;temperature;humidity
1504;DHT22;743;47.076;15.494;2023-03-04T00:00:39;6.10;1.00
1504;DHT22;743;47.076;15.494;2023-03-04T00:05:40;6.20;1.00
1504;DHT22;743;47.076;15.494;2023-03-04T00:08:07;5.90;1.00
1504;DHT22;743;47.076;15.494;2023-03-04T00:10:34;6.20;1.00
1504;DHT22;743;47.076;15.494;2023-03-04T00:13:01;5.90;1.00
1504;DHT22;743;47.076;15.494;2023-03-04T00:15:31;6.10;1.00
1504;DHT22;743;47.076;15.494;2023-03-04T00:17:58;6.30;1.00
1504;DHT22;743;47.076;15.494;2023-03-04T00:20:26;5.80;1.00
1504;DHT22;743;47.076;15.494;2023-03-04T00:25:21;5.80;1.00
1504;DHT22;743;47.076;15.494;2023-03-04T00:30:17;5.50;1.00
1504;DHT22;743;47.076;15.494;2023-03-04T00:32:46;5.60;1.00
1504;DHT22;743;47.076;15.494;2023-03-04T00:35:13;5.90;1.00
1504;DHT22;743;47.076;15.494;2023-03-04T00:37:41;6.40;1.00
1504;DHT22;743;47.076;15.494;2023-03-04T00:40:09;5.70;1.00
1504;DHT22;743;47.076;15.494;2023-03-04T00:42:37;5.50;1.00
1504;DHT22;743;47.076;15.494;2023-03-04T00:45:06;5.30;1.00
1504;DHT22;743;47.076;15.494;2023-03-04T00:47:33;5.80;1.00
1504;DHT22;743;47.076;15.494;2023-03-04T00:50:03;5.60;1.00
1504;DHT22;743;47.076;15.494;2023-03-04T00:52:33;5.70;1.00
1504;DHT22;743;47.076;15.494;2023-03-04T00:55:01;5.50;1.00
1504;DHT22;743;47.076;15.494;2023-03-04T00:59:57;5.90;1.00
1504;DHT22;743;47.076;15.494;2023-03-04T01:04:52;5.90;1.00
1504;DHT22;743;47.076;15.494;2023-03-04T01:07:20;5.60;1.00
1504;DHT22;743;47.076;15.494;2023-03-04T01:09:48;5.60;1.00
1504;DHT22;743;47.076;15.494;2023-03-04T01:12:15;5.40;1.00
1504;DHT22;743;47.076;15.494;2023-03-04T01:14:42;5.40;1.00
1504;DHT22;743;47.076;15.494;2023-03-04T01:17:10;5.30;1.00
1504;DHT22;743;47.076;15.494;2023-03-04T01:19:37;5.30;1.00
1504;DHT22;743;47.076;15.494;2023-03-04T01:22:05;5.70;1.00
1504;DHT22;743;47.076;15.494;2023-03-04T01:24:34;5.20;1.00
1504;DHT22;743;47.076;15.494;2023-03-04T01:27:01;5.20;1.00
1504;DHT22;743;47.076;15.494;2023-03-04T01:29:28;4.90;1.00
1504;DHT22;743;47.076;15.494;2023-03-04T01:31:57;5.20;1.00
1504;DHT22;743;47.076;15.494;2023-03-04T01:34:25;4.90;1.00
1504;DHT22;743;47.076;15.494;2023-03-04T01:36:52;4.60;1.00
1504;DHT22;743;47.076;15.494;2023-03-04T01:39:19;5.10;1.00
1504;DHT22;743;47.076;15.494;2023-03-04T01:41:48;5.30;1.00
1504;DHT22;743;47.076;15.494;2023-03-04T01:44:16;5.40;1.00
1504;DHT22;743;47.076;15.494;2023-03-04T01:46:49;5.20;1.00
1504;DHT22;743;47.076;15.494;2023-03-04T01:49:18;4.70;1.00
1504;DHT22;743;47.076;15.494;2023-03-04T01:51:50;5.20;1.00
1504;DHT22;743;47.076;15.494;2023-03-04T01:54:20;5.10;1.00
1504;DHT22;743;47.076;15.494;2023-03-04T01:56:51;5.10;1.00
1504;DHT22;743;47.076;15.494;2023-03-04T01:59:19;5.10;1.00
1504;DHT22;743;47.076;15.494;2023-03-04T02:01:48;5.10;1.00
1504;DHT22;743;47.076;15.494;2023-03-04T02:04:20;4.90;1.00
1504;DHT22;743;47.076;15.494;2023-03-04T02:06:48;4.80;1.00
1504;DHT22;743;47.076;15.494;2023-03-04T02:09:17;4.70;1.00
1504;DHT22;743;47.076;15.494;2023-03-04T02:11:46;5.00;1.00
1504;DHT22;743;47.076;15.494;2023-03-04T02:14:18;4.90;1.00
1504;DHT22;743;47.076;15.494;2023-03-04T02:16:46;5.40;1.00
1504;DHT22;743;47.076;15.494;2023-03-04T02:19:21;5.00;1.00
1504;DHT22;743;47.076;15.494;2023-03-04T02:21:51;4.80;1.00
1504;DHT22;743;47.076;15.494;2023-03-04T02:24:25;4.90;1.00
1504;DHT22;743;47.076;15.494;2023-03-04T02:26:55;4.80;1.00
1504;DHT22;743;47.076;15.494;2023-03-04T02:29:24;4.40;1.00
1504;DHT22;743;47.076;15.494;2023-03-04T02:31:53;4.70;1.00
1504;DHT22;743;47.076;15.494;2023-03-04T02:34:23;4.90;1.00
1504;DHT22;743;47.076;15.494;2023-03-04T02:36:52;4.70;1.00
1504;DHT22;743;47.076;15.494;2023-03-04T02:39:28;4.80;1.00
1504;DHT22;743;47.076;15.494;2023-03-04T02:42:00;4.30;1.00
1504;DHT22;743;47.076;15.494;2023-03-04T02:44:28;4.70;1.00
1504;DHT22;743;47.076;15.494;2023-03-04T02:46:58;4.80;1.00
1504;DHT22;743;47.076;15.494;2023-03-04T02:49:27;4.80;1.00
1504;DHT22;743;47.076;15.494;2023-03-04T02:52:00;4.60;1.00
1504;DHT22;743;47.076;15.494;2023-03-04T02:54:28;5.00;1.00
1504;DHT22;743;47.076;15.494;2023-03-04T02:56:59;4.70;1.00
1504;DHT22;743;47.076;15.494;2023-03-04T02:59:26;4.80;1.00
1504;DHT22;743;47.076;15.494;2023-03-04T03:01:55;4.50;1.00
1504;DHT22;743;47.076;15.494;2023-03-04T03:04:24;4.60;1.00
1504;DHT22;743;47.076;15.494;2023-03-04T03:06:53;4.70;1.00
1504;DHT22;743;47.076;15.494;2023-03-04T03:09:21;4.80;1.00
1504;DHT22;743;47.076;15.494;2023-03-04T03:11:49;4.60;1.00
1504;DHT22;743;47.076;15.494;2023-03-04T03:14:18;4.60;1.00
1504;DHT22;743;47.076;15.494;2023-03-04T03:16:48;4.60;1.00
1504;DHT22;743;47.076;15.494;2023-03-04T03:19:16;4.60;1.00
1504;DHT22;743;47.076;15.494;2023-03-04T03:26:42;4.80;1.00
1504;DHT22;743;47.076;15.494;2023-03-04T03:29:09;4.40;1.00
1504;DHT22;743;47.076;15.494;2023-03-04T03:31:38;4.20;1.00
1504;DHT22;743;47.076;15.494;2023-03-04T03:34:06;3.90;1.00
1504;DHT22;743;47.076;15.494;2023-03-04T03:36:33;4.30;1.00
1504;DHT22;743;47.076;15.494;2023-03-04T03:39:00;5.00;1.00
1504;DHT22;743;47.076;15.494;2023-03-04T03:43:55;4.50;1.00
1504;DHT22;743;47.076;15.494;2023-03-04T03:46:23;4.60;1.00
1504;DHT22;743;47.076;15.494;2023-03-04T03:48:53;4.50;1.00
1504;DHT22;743;47.076;15.494;2023-03-04T03:51:21;4.20;1.00
1504;DHT22;743;47.076;15.494;2023-03-04T03:53:49;4.40;1.00
1504;DHT22;743;47.076;15.494;2023-03-04T03:58:43;4.20;1.00
1504;DHT22;743;47.076;15.494;2023-03-04T04:01:11;4.70;1.00
1504;DHT22;743;47.076;15.494;2023-03-04T04:03:38;4.10;1.00
1504;DHT22;743;47.076;15.494;2023-03-04T04:06:08;3.40;1.00
1504;DHT22;743;47.076;15.494;2023-03-04T04:08:35;4.20;1.00
1504;DHT22;743;47.076;15.494;2023-03-04T04:13:32;4.10;1.00
1504;DHT22;743;47.076;15.494;2023-03-04T04:15:59;3.70;1.00
1504;DHT22;743;47.076;15.494;2023-03-04T04:18:26;4.10;1.00
1504;DHT22;743;47.076;15.494;2023-03-04T04:20:54;4.30;1.00
1504;DHT22;743;47.076;15.494;2023-03-04T04:23:23;4.50;1.00
1504;DHT22;743;47.076;15.494;2023-03-04T04:25:53;4.30;1.00
1504;DHT22;743;47.076;15.494;2023-03-04T04:28:22;4.30;1.00
1504;DHT22;743;47.076;15.494;2023-03-04T04:30:49;4.20;1.00
1504;DHT22;743;47.076;15.494;2023-03-04T04:33:16;4.10;1.00
1504;DHT22;743;47.076;15.494;2023-03-04T04:35:44;4.30;1.00
1504;DHT22;743;47.076;15.494;2023-03-04T04:38:13;4.20;1.00
1504;DHT22;743;47.076;15.494;2023-03-04T04:40:43;3.80;1.00
1504;DHT22;743;47.076;15.494;2023-03-04T04:43:10;4.00;1.00
1504;DHT22;743;47.076;15.494;2023-03-04T04:45:37;3.90;1.00
1504;DHT22;743;47.076;15.494;2023-03-04T04:48:05;4.10;1.00
1504;DHT22;743;47.076;15.494;2023-03-04T04:55:28;4.50;1.00
1504;DHT22;743;47.076;15.494;2023-03-04T04:57:57;4.20;1.00
1504;DHT22;743;47.076;15.494;2023-03-04T05:00:25;4.00;1.00
1504;DHT22;743;47.076;15.494;2023-03-04T05:02:52;4.20;1.00
1504;DHT22;743;47.076;15.494;2023-03-04T05:05:20;4.10;1.00
1504;DHT22;743;47.076;15.494;2023-03-04T05:07:48;4.20;1.00
1504;DHT22;743;47.076;15.494;2023-03-04T05:10:21;3.80;1.00
1504;DHT22;743;47.076;15.494;2023-03-04T05:15:18;3.80;1.00
1504;DHT22;743;47.076;15.494;2023-03-04T05:17:45;3.60;1.00
1504;DHT22;743;47.076;15.494;2023-03-04T05:20:13;3.70;1.00
1504;DHT22;743;47.076;15.494;2023-03-04T05:22:40;3.80;1.00
1504;DHT22;743;47.076;15.494;2023-03-04T05:25:08;4.00;1.00
1504;DHT22;743;47.076;15.494;2023-03-04T05:30:05;4.00;1.00
1504;DHT22;743;47.076;15.494;2023-03-04T05:32:34;3.50;1.00
1504;DHT22;743;47.076;15.494;2023-03-04T05:35:04;3.80;1.00
1504;DHT22;743;47.076;15.494;2023-03-04T05:37:31;3.70;1.00
1504;DHT22;743;47.076;15.494;2023-03-04T05:39:59;3.40;1.00
1504;DHT22;743;47.076;15.494;2023-03-04T05:42:26;3.70;1.00
1504;DHT22;743;47.076;15.494;2023-03-04T05:44:53;3.90;1.00
1504;DHT22;743;47.076;15.494;2023-03-04T05:47:20;4.10;1.00
1504;DHT22;743;47.076;15.494;2023-03-04T05:49:51;3.70;1.00
1504;DHT22;743;47.076;15.494;2023-03-04T05:54:46;3.80;1.00
1504;DHT22;743;47.076;15.494;2023-03-04T05:59:43;8.00;1.00
1504;DHT22;743;47.076;15.494;2023-03-04T06:02:12;7.60;1.00
1504;DHT22;743;47.076;15.494;2023-03-04T06:04:41;7.10;1.00
1504;DHT22;743;47.076;15.494;2023-03-04T06:07:10;6.50;1.00
1504;DHT22;743;47.076;15.494;2023-03-04T06:09:38;5.90;1.00
1504;DHT22;743;47.076;15.494;2023-03-04T06:12:06;5.60;1.00
1504;DHT22;743;47.076;15.494;2023-03-04T06:14:35;5.30;1.00
1504;DHT22;743;47.076;15.494;2023-03-04T06:17:03;5.30;1.00
1504;DHT22;743;47.076;15.494;2023-03-04T06:24:28;4.10;1.00
1504;DHT22;743;47.076;15.494;2023-03-04T06:26:56;4.30;1.00
1504;DHT22;743;47.076;15.494;2023-03-04T06:29:24;4.50;1.00
1504;DHT22;743;47.076;15.494;2023-03-04T06:31:51;5.10;1.00
1504;DHT22;743;47.076;15.494;2023-03-04T06:34:19;4.70;1.00
1504;DHT22;743;47.076;15.494;2023-03-04T06:39:14;4.80;1.00
1504;DHT22;743;47.076;15.494;2023-03-04T06:41:43;5.60;1.00
1504;DHT22;743;47.076;15.494;2023-03-04T06:44:12;5.20;1.00
1504;DHT22;743;47.076;15.494;2023-03-04T06:46:39;5.30;1.00
1504;DHT22;743;47.076;15.494;2023-03-04T06:49:07;5.20;1.00
1504;DHT22;743;47.076;15.494;2023-03-04T06:51:34;8.00;60.70
1504;DHT22;743;47.076;15.494;2023-03-04T06:54:02;9.70;1.00
1504;DHT22;743;47.076;15.494;2023-03-04T06:56:31;9.80;1.00
1504;DHT22;743;47.076;15.494;2023-03-04T06:58:59;8.90;1.00
1504;DHT22;743;47.076;15.494;2023-03-04T07:01:27;8.20;1.00
1504;DHT22;743;47.076;15.494;2023-03-04T07:03:55;8.00;1.00
1504;DHT22;743;47.076;15.494;2023-03-04T07:06:25;7.70;1.00
1504;DHT22;743;47.076;15.494;2023-03-04T07:08:53;7.40;1.00
1504;DHT22;743;47.076;15.494;2023-03-04T07:11:21;6.60;1.00
1504;DHT22;743;47.076;15.494;2023-03-04T07:13:50;7.00;1.00
1504;DHT22;743;47.076;15.494;2023-03-04T07:16:22;7.00;1.00
1504;DHT22;743;47.076;15.494;2023-03-04T07:18:49;6.60;1.00
1504;DHT22;743;47.076;15.494;2023-03-04T07:21:17;7.10;1.00
1504;DHT22;743;47.076;15.494;2023-03-04T07:23:46;6.80;1.00
1504;DHT22;743;47.076;15.494;2023-03-04T07:28:40;9.60;1.00
1504;DHT22;743;47.076;15.494;2023-03-04T07:31:10;9.40;1.00
1504;DHT22;743;47.076;15.494;2023-03-04T07:33:41;9.10;1.00
1504;DHT22;743;47.076;15.494;2023-03-04T07:36:09;8.50;1.00
1504;DHT22;743;47.076;15.494;2023-03-04T07:38:43;8.50;1.00
1504;DHT22;743;47.076;15.494;2023-03-04T07:41:10;8.40;1.00
1504;DHT22;743;47.076;15.494;2023-03-04T07:46:05;8.30;1.00
1504;DHT22;743;47.076;15.494;2023-03-04T07:48:35;8.20;1.00
1504;DHT22;743;47.076;15.494;2023-03-04T07:51:06;8.50;1.00
1504;DHT22;743;47.076;15.494;2023-03-04T07:53:34;8.50;1.00
1504;DHT22;743;47.076;15.494;2023-03-04T07:56:03;8.30;1.00
1504;DHT22;743;47.076;15.494;2023-03-04T07:58:32;8.70;1.00
1504;DHT22;743;47.076;15.494;2023-03-04T08:01:05;8.40;1.00
1504;DHT22;743;47.076;15.494;2023-03-04T08:06:12;8.60;1.00
1504;DHT22;743;47.076;15.494;2023-03-04T08:08:40;8.80;1.00
1504;DHT22;743;47.076;15.494;2023-03-04T08:11:09;8.60;1.00
1504;DHT22;743;47.076;15.494;2023-03-04T08:13:37;8.10;1.00
1504;DHT22;743;47.076;15.494;2023-03-04T08:16:13;9.00;1.00
1504;DHT22;743;47.076;15.494;2023-03-04T08:18:45;9.10;1.00
1504;DHT22;743;47.076;15.494;2023-03-04T08:21:19;9.90;1.00
1504;DHT22;743;47.076;15.494;2023-03-04T08:23:48;9.70;1.00
1504;DHT22;743;47.076;15.494;2023-03-04T08:26:21;8.90;1.00
1504;DHT22;743;47.076;15.494;2023-03-04T08:28:50;9.60;1.00
1504;DHT22;743;47.076;15.494;2023-03-04T08:31:18;9.50;1.00
1504;DHT22;743;47.076;15.494;2023-03-04T08:33:50;9.60;1.00
1504;DHT22;743;47.076;15.494;2023-03-04T08:36:21;10.20;1.00
1504;DHT22;743;47.076;15.494;2023-03-04T08:38:49;9.60;1.00
1504;DHT22;743;47.076;15.494;2023-03-04T08:41:18;10.00;1.00
1504;DHT22;743;47.076;15.494;2023-03-04T08:43:48;10.10;1.00
1504;DHT22;743;47.076;15.494;2023-03-04T08:46:20;10.50;1.00
1504;DHT22;743;47.076;15.494;2023-03-04T08:48:50;10.50;1.00
1504;DHT22;743;47.076;15.494;2023-03-04T08:51:21;10.10;1.00
1504;DHT22;743;47.076;15.494;2023-03-04T08:53:49;10.40;1.00
1504;DHT22;743;47.076;15.494;2023-03-04T08:56:18;10.30;1.00
1504;DHT22;743;47.076;15.494;2023-03-04T08:58:48;10.50;1.00
1504;DHT22;743;47.076;15.494;2023-03-04T09:01:18;10.50;1.00
1504;DHT22;743;47.076;15.494;2023-03-04T09:06:14;10.70;1.00
1504;DHT22;743;47.076;15.494;2023-03-04T09:08:44;10.70;1.00
1504;DHT22;743;47.076;15.494;2023-03-04T09:11:11;10.80;1.00
1504;DHT22;743;47.076;15.494;2023-03-04T09:13:38;11.20;1.00
1504;DHT22;743;47.076;15.494;2023-03-04T09:16:09;10.80;1.00
1504;DHT22;743;47.076;15.494;2023-03-04T09:18:40;11.00;1.00
1504;DHT22;743;47.076;15.494;2023-03-04T09:21:08;10.90;1.00
1504;DHT22;743;47.076;15.494;2023-03-04T09:23:36;11.10;1.00
1504;DHT22;743;47.076;15.494;2023-03-04T09:26:15;11.50;1.00
1504;DHT22;743;47.076;15.494;2023-03-04T09:28:43;11.80;1.00
1504;DHT22;743;47.076;15.494;2023-03-04T09:31:12;11.80;1.00
1504;DHT22;743;47.076;15.494;2023-03-04T09:33:39;11.90;1.00
1504;DHT22;743;47.076;15.494;2023-03-04T09:36:08;11.80;1.00
1504;DHT22;743;47.076;15.494;2023-03-04T09:38:36;12.10;1.00
1504;DHT22;743;47.076;15.494;2023-03-04T09:41:06;11.60;1.00
1504;DHT22;743;47.076;15.494;2023-03-04T09:43:39;11.10;1.00
1504;DHT22;743;47.076;15.494;2023-03-04T09:46:12;11.80;1.00
1504;DHT22;743;47.076;15.494;2023-03-04T09:51:19;11.90;1.00
1504;DHT22;743;47.076;15.494;2023-03-04T09:54:00;11.80;1.00
1504;DHT22;743;47.076;15.494;2023-03-04T09:56:30;12.00;1.00
1504;DHT22;743;47.076;15.494;2023-03-04T09:59:10;12.00;1.00
1504;DHT22;743;47.076;15.494;2023-03-04T10:01:46;12.10;1.00
1504;DHT22;743;47.076;15.494;2023-03-04T10:04:25;12.40;1.00
1504;DHT22;743;47.076;15.494;2023-03-04T10:06:56;12.10;1.00
1504;DHT22;743;47.076;15.494;2023-03-04T10:09:26;12.50;1.00
1504;DHT22;743;47.076;15.494;2023-03-04T10:11:59;12.10;1.00
1504;DHT22;743;47.076;15.494;2023-03-04T10:14:34;12.60;1.00
1504;DHT22;743;47.076;15.494;2023-03-04T10:17:09;12.80;1.00
1504;DHT22;743;47.076;15.494;2023-03-04T10:19:56;12.30;1.00
1504;DHT22;743;47.076;15.494;2023-03-04T10:22:32;12.80;1.00
1504;DHT22;743;47.076;15.494;2023-03-04T10:25:14;13.50;1.00
1504;DHT22;743;47.076;15.494;2023-03-04T10:27:49;13.10;1.00
1504;DHT22;743;47.076;15.494;2023-03-04T10:30:29;12.90;1.00
1504;DHT22;743;47.076;15.494;2023-03-04T10:32:59;12.70;1.00
1504;DHT22;743;47.076;15.494;2023-03-04T10:35:33;12.90;1.00
1504;DHT22;743;47.076;15.494;2023-03-04T10:38:02;13.10;1.00
1504;DHT22;743;47.076;15.494;2023-03-04T10:40:37;11.30;1.00
1504;DHT22;743;47.076;15.494;2023-03-04T10:43:04;13.20;1.00
1504;DHT22;743;47.076;15.494;2023-03-04T10:45:38;13.30;1.00
1504;DHT22;743;47.076;15.494;2023-03-04T10:48:17;13.70;1.00
1504;DHT22;743;47.076;15.494;2023-03-04T10:50:46;13.80;1.00
1504;DHT22;743;47.076;15.494;2023-03-04T10:53:25;13.50;1.00
1504;DHT22;743;47.076;15.494;2023-03-04T10:55:54;13.70;1.00
1504;DHT22;743;47.076;15.494;2023-03-04T10:58:22;13.90;1.00
1504;DHT22;743;47.076;15.494;2023-03-04T11:01:23;14.40;1.00
1504;DHT22;743;47.076;15.494;2023-03-04T11:03:52;13.80;1.00
1504;DHT22;743;47.076;15.494;2023-03-04T11:06:21;14.00;1.00
1504;DHT22;743;47.076;15.494;2023-03-04T11:08:53;14.20;1.00
1504;DHT22;743;47.076;15.494;2023-03-04T11:11:23;14.30;1.00
1504;DHT22;743;47.076;15.494;2023-03-04T11:13:51;14.20;1.00
1504;DHT22;743;47.076;15.494;2023-03-04T11:16:31;14.20;1.00
1504;DHT22;743;47.076;15.494;2023-03-04T11:19:03;14.40;1.00
1504;DHT22;743;47.076;15.494;2023-03-04T11:21:36;14.20;1.00
1504;DHT22;743;47.076;15.494;2023-03-04T11:24:10;14.10;1.00
1504;DHT22;743;47.076;15.494;2023-03-04T11:26:40;14.10;1.00
1504;DHT22;743;47.076;15.494;2023-03-04T11:29:14;13.80;1.00
1504;DHT22;743;47.076;15.494;2023-03-04T11:34:21;14.30;1.00
1504;DHT22;743;47.076;15.494;2023-03-04T11:36:54;14.90;1.00
1504;DHT22;743;47.076;15.494;2023-03-04T11:39:29;14.70;1.00
1504;DHT22;743;47.076;15.494;2023-03-04T11:42:02;15.30;1.00
1504;DHT22;743;47.076;15.494;2023-03-04T11:44:34;15.20;1.00
1504;DHT22;743;47.076;15.494;2023-03-04T11:47:16;15.00;1.00
1504;DHT22;743;47.076;15.494;2023-03-04T11:50:19;15.10;1.00
1504;DHT22;743;47.076;15.494;2023-03-04T11:53:17;16.70;1.00
1504;DHT22;743;47.076;15.494;2023-03-04T11:55:51;17.80;1.00
1504;DHT22;743;47.076;15.494;2023-03-04T12:01:26;20.50;1.00
1504;DHT22;743;47.076;15.494;2023-03-04T12:07:04;21.30;1.00
1504;DHT22;743;47.076;15.494;2023-03-04T12:09:42;21.60;1.00
1504;DHT22;743;47.076;15.494;2023-03-04T12:12:28;21.80;1.00
1504;DHT22;743;47.076;15.494;2023-03-04T12:15:06;21.80;1.00
1504;DHT22;743;47.076;15.494;2023-03-04T12:17:58;22.50;1.00
1504;DHT22;743;47.076;15.494;2023-03-04T12:20:42;22.30;1.00
1504;DHT22;743;47.076;15.494;2023-03-04T12:23:32;22.00;1.00
1504;DHT22;743;47.076;15.494;2023-03-04T12:26:14;21.70;1.00
1504;DHT22;743;47.076;15.494;2023-03-04T12:28:55;20.90;1.00
1504;DHT22;743;47.076;15.494;2023-03-04T12:31:34;19.90;1.00
1504;DHT22;743;47.076;15.494;2023-03-04T12:37:24;19.00;1.00
1504;DHT22;743;47.076;15.494;2023-03-04T12:40:27;18.80;1.00
1504;DHT22;743;47.076;15.494;2023-03-04T12:43:13;18.80;1.00
1504;DHT22;743;47.076;15.494;2023-03-04T12:45:51;18.40;1.00
1504;DHT22;743;47.076;15.494;2023-03-04T12:48:26;18.60;1.00
1504;DHT22;743;47.076;15.494;2023-03-04T12:51:16;18.70;1.00
1504;DHT22;743;47.076;15.494;2023-03-04T12:53:54;18.80;1.00
1504;DHT22;743;47.076;15.494;2023-03-04T12:56:36;18.30;1.00
1504;DHT22;743;47.076;15.494;2023-03-04T12:59:05;18.40;1.00
1504;DHT22;743;47.076;15.494;2023-03-04T13:01:38;18.70;1.00
1504;DHT22;743;47.076;15.494;2023-03-04T13:04:11;18.40;1.00
1504;DHT22;743;47.076;15.494;2023-03-04T13:06:47;18.30;1.00
1504;DHT22;743;47.076;15.494;2023-03-04T13:09:20;18.60;1.00
1504;DHT22;743;47.076;15.494;2023-03-04T13:12:01;18.30;1.00
1504;DHT22;743;47.076;15.494;2023-03-04T13:14:31;18.40;1.00
1504;DHT22;743;47.076;15.494;2023-03-04T13:17:00;18.60;1.00
1504;DHT22;743;47.076;15.494;2023-03-04T13:19:49;19.00;1.00
1504;DHT22;743;47.076;15.494;2023-03-04T13:22:41;19.40;1.00
1504;DHT22;743;47.076;15.494;2023-03-04T13:25:34;19.30;1.00
1504;DHT22;743;47.076;15.494;2023-03-04T13:28:23;19.80;1.00
1504;DHT22;743;47.076;15.494;2023-03-04T13:31:16;19.30;1.00
1504;DHT22;743;47.076;15.494;2023-03-04T13:34:00;19.90;1.00
1504;DHT22;743;47.076;15.494;2023-03-04T13:39:34;20.80;1.00
1504;DHT22;743;47.076;15.494;2023-03-04T13:42:04;20.40;1.00
1504;DHT22;743;47.076;15.494;2023-03-04T13:44:57;21.00;1.00
1504;DHT22;743;47.076;15.494;2023-03-04T13:47:38;20.50;1.00
1504;DHT22;743;47.076;15.494;2023-03-04T13:50:38;20.80;1.00
1504;DHT22;743;47.076;15.494;2023-03-04T13:53:30;20.60;1.00
1504;DHT22;743;47.076;15.494;2023-03-04T13:59:20;20.00;1.00
1504;DHT22;743;47.076;15.494;2023-03-04T14:04:25;19.90;1.00
1504;DHT22;743;47.076;15.494;2023-03-04T14:06:54;20.00;1.00
1504;DHT22;743;47.076;15.494;2023-03-04T14:09:24;20.50;1.00
1504;DHT22;743;47.076;15.494;2023-03-04T14:11:53;20.40;1.00
1504;DHT22;743;47.076;15.494;2023-03-04T14:14:24;20.40;1.00
1504;DHT22;743;47.076;15.494;2023-03-04T14:16:56;20.30;1.00
1504;DHT22;743;47.076;15.494;2023-03-04T14:19:27;20.20;1.00
1504;DHT22;743;47.076;15.494;2023-03-04T14:21:55;20.90;1.00
1504;DHT22;743;47.076;15.494;2023-03-04T14:24:24;20.90;1.00
1504;DHT22;743;47.076;15.494;2023-03-04T14:27:05;20.90;1.00
1504;DHT22;743;47.076;15.494;2023-03-04T14:29:36;21.10;1.00
1504;DHT22;743;47.076;15.494;2023-03-04T14:32:06;20.90;1.00
1504;DHT22;743;47.076;15.494;2023-03-04T14:34:35;20.80;1.00
1504;DHT22;743;47.076;15.494;2023-03-04T14:37:02;21.00;1.00
1504;DHT22;743;47.076;15.494;2023-03-04T14:39:32;21.10;1.00
1504;DHT22;743;47.076;15.494;2023-03-04T14:42:07;22.00;1.00
1504;DHT22;743;47.076;15.494;2023-03-04T14:44:37;21.60;1.00
1504;DHT22;743;47.076;15.494;2023-03-04T14:47:16;22.10;1.00
1504;DHT22;743;47.076;15.494;2023-03-04T14:49:46;21.40;1.00
1504;DHT22;743;47.076;15.494;2023-03-04T14:52:30;21.70;1.00
1504;DHT22;743;47.076;15.494;2023-03-04T14:55:01;22.00;99.90
1504;DHT22;743;47.076;15.494;2023-03-04T14:57:32;22.10;1.00
1504;DHT22;743;47.076;15.494;2023-03-04T15:00:28;22.00;1.00
1504;DHT22;743;47.076;15.494;2023-03-04T15:02:59;21.90;1.00
1504;DHT22;743;47.076;15.494;2023-03-04T15:05:29;21.30;1.00
1504;DHT22;743;47.076;15.494;2023-03-04T15:08:00;21.60;1.00
1504;DHT22;743;47.076;15.494;2023-03-04T15:10:29;20.80;99.90
1504;DHT22;743;47.076;15.494;2023-03-04T15:12:59;20.70;99.90
1504;DHT22;743;47.076;15.494;2023-03-04T15:15:40;20.70;1.00
1504;DHT22;743;47.076;15.494;2023-03-04T15:18:20;19.80;1.00
1504;DHT22;743;47.076;15.494;2023-03-04T15:20:58;19.90;1.00
1504;DHT22;743;47.076;15.494;2023-03-04T15:23:28;19.80;99.90
1504;DHT22;743;47.076;15.494;2023-03-04T15:25:59;19.40;1.00
1504;DHT22;743;47.076;15.494;2023-03-04T15:28:32;19.00;1.00
1504;DHT22;743;47.076;15.494;2023-03-04T15:31:01;18.50;1.00
1504;DHT22;743;47.076;15.494;2023-03-04T15:33:30;18.10;99.90
1504;DHT22;743;47.076;15.494;2023-03-04T15:35:59;17.70;1.00
1504;DHT22;743;47.076;15.494;2023-03-04T15:38:28;17.50;1.00
1504;DHT22;743;47.076;15.494;2023-03-04T15:40:56;17.40;99.90
1504;DHT22;743;47.076;15.494;2023-03-04T15:43:25;17.10;1.00
1504;DHT22;743;47.076;15.494;2023-03-04T15:45:54;17.00;1.00
1504;DHT22;743;47.076;15.494;2023-03-04T15:48:22;16.80;1.00
1504;DHT22;743;47.076;15.494;2023-03-04T15:50:54;16.70;99.90
1504;DHT22;743;47.076;15.494;2023-03-04T15:53:26;17.00;99.90
1504;DHT22;743;47.076;15.494;2023-03-04T15:55:57;16.60;1.00
1504;DHT22;743;47.076;15.494;2023-03-04T15:58:26;16.30;1.00
1504;DHT22;743;47.076;15.494;2023-03-04T16:00:56;19.10;99.90
1504;DHT22;743;47.076;15.494;2023-03-04T16:03:24;16.30;99.90
1504;DHT22;743;47.076;15.494;2023-03-04T16:05:53;16.30;1.00
1504;DHT22;743;47.076;15.494;2023-03-04T16:08:21;16.20;1.00
1504;DHT22;743;47.076;15.494;2023-03-04T16:10:52;16.40;1.00
1504;DHT22;743;47.076;15.494;2023-03-04T16:13:22;16.20;99.90
1504;DHT22;743;47.076;15.494;2023-03-04T16:18:17;16.00;1.00
1504;DHT22;743;47.076;15.494;2023-03-04T16:20:47;16.20;99.90
1504;DHT22;743;47.076;15.494;2023-03-04T16:23:32;16.20;99.90
1504;DHT22;743;47.076;15.494;2023-03-04T16:26:01;16.00;1.00
1504;DHT22;743;47.076;15.494;2023-03-04T16:28:29;15.80;1.00
1504;DHT22;743;47.076;15.494;2023-03-04T16:30:57;15.50;1.00
1504;DHT22;743;47.076;15.494;2023-03-04T16:33:24;15.50;1.00
1504;DHT22;743;47.076;15.494;2023-03-04T16:35:53;15.70;1.00
1504;DHT22;743;47.076;15.494;2023-03-04T16:38:23;15.50;99.90
1504;DHT22;743;47.076;15.494;2023-03-04T16:40:52;15.10;1.00
1504;DHT22;743;47.076;15.494;2023-03-04T16:43:20;15.00;1.00
1504;DHT22;743;47.076;15.494;2023-03-04T16:45:55;14.90;1.00
1504;DHT22;743;47.076;15.494;2023-03-04T16:48:22;14.90;1.00
1504;DHT22;743;47.076;15.494;2023-03-04T16:50:50;14.60;1.00
1504;DHT22;743;47.076;15.494;2023-03-04T16:53:27;14.20;1.00
1504;DHT22;743;47.076;15.494;2023-03-04T16:55:57;14.40;1.00
1504;DHT22;743;47.076;15.494;2023-03-04T16:58:25;14.10;1.00
1504;DHT22;743;47.076;15.494;2023-03-04T17:03:21;13.70;1.00
1504;DHT22;743;47.076;15.494;2023-03-04T17:05:48;13.60;1.00
1504;DHT22;743;47.076;15.494;2023-03-04T17:08:16;13.60;1.00
1504;DHT22;743;47.076;15.494;2023-03-04T17:10:45;13.40;99.90
1504;DHT22;743;47.076;15.494;2023-03-04T17:13:14;13.00;99.90
1504;DHT22;743;47.076;15.494;2023-03-04T17:15:42;13.10;1.00
1504;DHT22;743;47.076;15.494;2023-03-04T17:18:10;13.20;1.00
1504;DHT22;743;47.076;15.494;2023-03-04T17:20:37;12.80;1.00
1504;DHT22;743;47.076;15.494;2023-03-04T17:23:05;12.20;1.00
1504;DHT22;743;47.076;15.494;2023-03-04T17:25:33;12.60;1.00
1504;DHT22;743;47.076;15.494;2023-03-04T17:28:06;12.60;99.90
1504;DHT22;743;47.076;15.494;2023-03-04T17:30:34;13.00;1.00
1504;DHT22;743;47.076;15.494;2023-03-04T17:35:31;12.30;1.00
1504;DHT22;743;47.076;15.494;2023-03-04T17:37:59;12.40;1.00
1504;DHT22;743;47.076;15.494;2023-03-04T17:40:27;12.90;1.00
1504;DHT22;743;47.076;15.494;2023-03-04T17:42:55;12.60;99.90
1504;DHT22;743;47.076;15.494;2023-03-04T17:45:26;12.30;1.00
1504;DHT22;743;47.076;15.494;2023-03-04T17:47:54;12.10;1.00
1504;DHT22;743;47.076;15.494;2023-03-04T17:52:52;11.80;99.90
1504;DHT22;743;47.076;15.494;2023-03-04T17:55:20;13.30;1.00
1504;DHT22;743;47.076;15.494;2023-03-04T17:57:49;14.90;1.00
1504;DHT22;743;47.076;15.494;2023-03-04T18:00:21;16.30;1.00
1504;DHT22;743;47.076;15.494;2023-03-04T18:02:51;15.90;1.00
1504;DHT22;743;47.076;15.494;2023-03-04T18:05:20;15.50;1.00
1504;DHT22;743;47.076;15.494;2023-03-04T18:07:48;14.60;1.00
1504;DHT22;743;47.076;15.494;2023-03-04T18:10:16;13.60;99.90
1504;DHT22;743;47.076;15.494;2023-03-04T18:15:14;12.90;1.00
1504;DHT22;743;47.076;15.494;2023-03-04T18:17:43;12.10;99.90
1504;DHT22;743;47.076;15.494;2023-03-04T18:20:14;12.00;1.00
1504;DHT22;743;47.076;15.494;2023-03-04T18:22:42;11.30;1.00